Wetterdaten: Woche 09.12.13 - 15.12.13 (KW50)
Datum Zeit Temperatur Luftfeuchte Luftdruck Niederschlag Windrichtung Sonnenschein Solar Wind
09.12.2013 00:00 -0,2 C 94 % 1031,5 hPa 0,0 l/m S-SW 0,00 h 0 W/m 5,5 km/h (1 Bft)
09.12.2013 01:00 -0,7 C 95 % 1031,5 hPa 0,0 l/m S 0,00 h 0 W/m 7,0 km/h (2 Bft)
09.12.2013 02:00 -0,6 C 95 % 1031,4 hPa 0,0 l/m S 0,00 h 0 W/m 9,5 km/h (2 Bft)
09.12.2013 03:00 -0,5 C 95 % 1031,4 hPa 0,0 l/m S 0,00 h 0 W/m 7,1 km/h (2 Bft)
09.12.2013 04:00 -1,1 C 93 % 1031,1 hPa 0,0 l/m S-SW 0,00 h 0 W/m 4,1 km/h (1 Bft)
09.12.2013 05:00 -1,9 C 94 % 1031,3 hPa 0,0 l/m S-SW 0,00 h 0 W/m 0,9 km/h (0 Bft)
09.12.2013 06:00 -2,5 C 95 % 1031,5 hPa 0,0 l/m N 0,00 h 0 W/m 0,4 km/h (0 Bft)
09.12.2013 07:00 -2,8 C 96 % 1031,5 hPa 0,0 l/m N 0,00 h 0 W/m 0,3 km/h (0 Bft)
09.12.2013 08:00 -2,3 C 96 % 1031,9 hPa 0,0 l/m N 0,25 h 32 W/m 0,1 km/h (0 Bft)
09.12.2013 09:00 -0,5 C 95 % 1032,3 hPa 0,0 l/m S-SW 0,08 h 69 W/m 3,7 km/h (1 Bft)
09.12.2013 10:00 0,6 C 93 % 1033,0 hPa 0,0 l/m S-SW 0,83 h 188 W/m 7,0 km/h (2 Bft)
09.12.2013 11:00 2,3 C 87 % 1032,8 hPa 0,0 l/m S-SW 0,92 h 246 W/m 8,2 km/h (2 Bft)
09.12.2013 12:00 3,4 C 83 % 1032,6 hPa 0,0 l/m S-SW 1,00 h 319 W/m 11,2 km/h (2 Bft)
09.12.2013 13:00 4,5 C 79 % 1032,4 hPa 0,0 l/m S-SW 1,00 h 288 W/m 10,3 km/h (2 Bft)
09.12.2013 14:00 4,9 C 77 % 1032,3 hPa 0,0 l/m S-SW 0,92 h 183 W/m 10,7 km/h (2 Bft)
09.12.2013 15:00 4,4 C 78 % 1032,2 hPa 0,0 l/m S-SW 1,00 h 90 W/m 9,6 km/h (2 Bft)
09.12.2013 16:00 2,9 C 82 % 1032,9 hPa 0,0 l/m S-SW 0,33 h 11 W/m 3,5 km/h (1 Bft)
09.12.2013 17:00 1,0 C 88 % 1033,2 hPa 0,0 l/m N 0,00 h 0 W/m 0,3 km/h (0 Bft)
09.12.2013 18:00 0,0 C 91 % 1033,4 hPa 0,0 l/m N 0,00 h 0 W/m 0,0 km/h (0 Bft)
09.12.2013 19:00 -0,1 C 91 % 1033,2 hPa 0,0 l/m N 0,00 h 0 W/m 1,5 km/h (1 Bft)
09.12.2013 20:00 -0,0 C 92 % 1033,4 hPa 0,0 l/m N 0,00 h 0 W/m 0,0 km/h (0 Bft)
09.12.2013 21:00 0,7 C 91 % 1033,6 hPa 0,0 l/m N 0,00 h 0 W/m 0,0 km/h (0 Bft)
09.12.2013 22:00 0,3 C 91 % 1033,9 hPa 0,0 l/m N 0,00 h 0 W/m 0,0 km/h (0 Bft)
09.12.2013 23:00 -0,5 C 93 % 1034,0 hPa 0,0 l/m N 0,00 h 0 W/m 0,1 km/h (0 Bft)
10.12.2013 00:00 -1,1 C 93 % 1033,9 hPa 0,0 l/m N 0,00 h 0 W/m 0,0 km/h (0 Bft)
10.12.2013 01:00 -1,4 C 93 % 1033,8 hPa 0,0 l/m N 0,00 h 0 W/m 1,3 km/h (1 Bft)
10.12.2013 02:00 -1,3 C 93 % 1034,3 hPa 0,0 l/m S-SW 0,00 h 0 W/m 1,9 km/h (1 Bft)
10.12.2013 03:00 -1,7 C 94 % 1034,6 hPa 0,0 l/m N 0,00 h 0 W/m 0,1 km/h (0 Bft)
10.12.2013 04:00 -2,0 C 94 % 1034,6 hPa 0,0 l/m N 0,00 h 0 W/m 0,0 km/h (0 Bft)
10.12.2013 05:00 -2,1 C 94 % 1034,9 hPa 0,0 l/m N 0,00 h 0 W/m 0,8 km/h (0 Bft)
10.12.2013 06:00 -2,1 C 95 % 1034,8 hPa 0,0 l/m N 0,00 h 0 W/m 1,5 km/h (1 Bft)
10.12.2013 07:00 -1,5 C 94 % 1034,7 hPa 0,0 l/m S-SW 0,00 h 0 W/m 2,8 km/h (1 Bft)
10.12.2013 08:00 -0,8 C 93 % 1034,6 hPa 0,0 l/m SW 0,00 h 11 W/m 5,9 km/h (2 Bft)
10.12.2013 09:00 0,5 C 90 % 1034,6 hPa 0,0 l/m N-NW 0,17 h 49 W/m 8,4 km/h (2 Bft)
10.12.2013 10:00 2,5 C 84 % 1034,9 hPa 0,0 l/m N-NW 0,83 h 178 W/m 7,2 km/h (2 Bft)
10.12.2013 11:00 4,6 C 78 % 1034,6 hPa 0,0 l/m N 1,00 h 274 W/m 9,4 km/h (2 Bft)
10.12.2013 12:00 6,3 C 70 % 1034,2 hPa 0,0 l/m NO 1,00 h 297 W/m 10,4 km/h (2 Bft)
10.12.2013 13:00 7,0 C 69 % 1033,9 hPa 0,0 l/m NO 1,00 h 280 W/m 10,7 km/h (2 Bft)
10.12.2013 14:00 7,5 C 71 % 1033,8 hPa 0,0 l/m N-NO 1,00 h 192 W/m 8,8 km/h (2 Bft)
10.12.2013 15:00 7,1 C 73 % 1034,0 hPa 0,0 l/m N-NO 0,75 h 72 W/m 8,0 km/h (2 Bft)
10.12.2013 16:00 5,0 C 81 % 1034,4 hPa 0,0 l/m N-NO 0,00 h 8 W/m 5,3 km/h (1 Bft)
10.12.2013 17:00 3,4 C 88 % 1034,9 hPa 0,0 l/m N-NO 0,00 h 0 W/m 4,7 km/h (1 Bft)
10.12.2013 18:00 2,9 C 90 % 1035,2 hPa 0,0 l/m N-NO 0,00 h 0 W/m 4,7 km/h (1 Bft)
10.12.2013 19:00 2,0 C 93 % 1035,3 hPa 0,0 l/m N 0,00 h 0 W/m 2,0 km/h (1 Bft)
10.12.2013 20:00 1,5 C 95 % 1035,4 hPa 0,0 l/m N-NO 0,00 h 0 W/m 2,4 km/h (1 Bft)
10.12.2013 21:00 2,1 C 97 % 1035,6 hPa 0,0 l/m N 0,00 h 0 W/m 0,7 km/h (0 Bft)
10.12.2013 22:00 2,3 C 98 % 1035,5 hPa 0,0 l/m N-NO 0,00 h 0 W/m 3,2 km/h (1 Bft)
10.12.2013 23:00 2,2 C 98 % 1035,4 hPa 0,0 l/m N 0,00 h 0 W/m 2,5 km/h (1 Bft)
11.12.2013 00:00 1,9 C 99 % 1035,2 hPa 0,0 l/m N-NO 0,00 h 0 W/m 1,5 km/h (1 Bft)
11.12.2013 01:00 1,6 C 99 % 1035,0 hPa 0,0 l/m N-NO 0,00 h 0 W/m 1,7 km/h (1 Bft)
11.12.2013 02:00 1,3 C 99 % 1035,1 hPa 0,0 l/m N 0,00 h 0 W/m 0,5 km/h (0 Bft)
11.12.2013 03:00 1,0 C 99 % 1035,1 hPa 0,0 l/m N 0,00 h 0 W/m 0,7 km/h (0 Bft)
11.12.2013 04:00 0,7 C 99 % 1035,0 hPa 0,0 l/m N 0,00 h 0 W/m 0,7 km/h (0 Bft)
11.12.2013 05:00 0,4 C 99 % 1035,0 hPa 0,0 l/m N 0,00 h 0 W/m 1,2 km/h (1 Bft)
11.12.2013 06:00 0,2 C 99 % 1035,0 hPa 0,0 l/m N 0,00 h 0 W/m 1,9 km/h (1 Bft)
11.12.2013 07:00 -0,1 C 99 % 1035,0 hPa 0,0 l/m N-NO 0,00 h 0 W/m 1,2 km/h (1 Bft)
11.12.2013 08:00 -0,3 C 99 % 1035,2 hPa 0,0 l/m N-NO 0,00 h 11 W/m 1,6 km/h (1 Bft)
11.12.2013 09:00 -0,5 C 99 % 1035,2 hPa 0,0 l/m N 0,00 h 31 W/m 1,9 km/h (1 Bft)
11.12.2013 10:00 -0,5 C 99 % 1035,3 hPa 0,0 l/m N-NO 0,00 h 63 W/m 2,8 km/h (1 Bft)
11.12.2013 11:00 -0,0 C 99 % 1035,1 hPa 0,0 l/m N 0,00 h 76 W/m 1,9 km/h (1 Bft)
11.12.2013 12:00 0,5 C 99 % 1034,7 hPa 0,0 l/m N 0,00 h 73 W/m 2,4 km/h (1 Bft)
11.12.2013 13:00 0,7 C 99 % 1034,2 hPa 0,0 l/m N-NO 0,00 h 76 W/m 2,1 km/h (1 Bft)
11.12.2013 14:00 0,7 C 99 % 1033,9 hPa 0,0 l/m N-NO 0,00 h 60 W/m 4,0 km/h (1 Bft)
11.12.2013 15:00 0,8 C 99 % 1033,6 hPa 0,0 l/m N 0,00 h 22 W/m 3,1 km/h (1 Bft)
11.12.2013 16:00 0,3 C 99 % 1033,6 hPa 0,0 l/m N-NO 0,00 h 6 W/m 4,5 km/h (1 Bft)
11.12.2013 17:00 0,2 C 99 % 1033,6 hPa 0,0 l/m N-NO 0,00 h 0 W/m 3,3 km/h (1 Bft)
11.12.2013 18:00 -0,5 C 99 % 1033,7 hPa 0,0 l/m N-NO 0,00 h 0 W/m 4,7 km/h (1 Bft)
11.12.2013 19:00 -0,7 C 99 % 1033,7 hPa 0,0 l/m N-NO 0,00 h 0 W/m 3,9 km/h (1 Bft)
11.12.2013 20:00 -0,7 C 99 % 1033,6 hPa 0,0 l/m N-NO 0,00 h 0 W/m 3,7 km/h (1 Bft)
11.12.2013 21:00 -0,7 C 99 % 1033,5 hPa 0,0 l/m N-NO 0,00 h 0 W/m 3,2 km/h (1 Bft)
11.12.2013 22:00 -0,9 C 99 % 1033,2 hPa 0,0 l/m N-NO 0,00 h 0 W/m 3,7 km/h (1 Bft)
11.12.2013 23:00 -1,1 C 99 % 1033,2 hPa 0,0 l/m N-NO 0,00 h 0 W/m 4,5 km/h (1 Bft)
12.12.2013 00:00 -1,0 C 99 % 1033,1 hPa 0,0 l/m N-NO 0,00 h 0 W/m 3,9 km/h (1 Bft)
12.12.2013 01:00 -1,2 C 99 % 1032,9 hPa 0,0 l/m N-NO 0,00 h 0 W/m 5,1 km/h (1 Bft)
12.12.2013 02:00 -1,4 C 99 % 1032,8 hPa 0,0 l/m NO 0,00 h 0 W/m 3,7 km/h (1 Bft)
12.12.2013 03:00 -1,5 C 99 % 1032,6 hPa 0,0 l/m NO 0,00 h 0 W/m 5,2 km/h (1 Bft)
12.12.2013 04:00 -1,5 C 99 % 1032,4 hPa 0,0 l/m NO 0,00 h 0 W/m 4,5 km/h (1 Bft)
12.12.2013 05:00 -1,6 C 99 % 1032,2 hPa 0,0 l/m NO 0,00 h 0 W/m 3,1 km/h (1 Bft)
12.12.2013 06:00 -1,5 C 99 % 1031,9 hPa 0,0 l/m N 0,00 h 0 W/m 2,5 km/h (1 Bft)
12.12.2013 07:00 -1,7 C 99 % 1032,0 hPa 0,0 l/m NO 0,00 h 0 W/m 2,0 km/h (1 Bft)
12.12.2013 08:00 -1,8 C 99 % 1032,1 hPa 0,0 l/m N 0,00 h 13 W/m 1,3 km/h (1 Bft)
12.12.2013 09:00 -1,7 C 99 % 1032,2 hPa 0,0 l/m N 0,00 h 22 W/m 0,4 km/h (0 Bft)
12.12.2013 10:00 -1,7 C 99 % 1032,3 hPa 0,0 l/m NO 0,00 h 35 W/m 2,4 km/h (1 Bft)
12.12.2013 11:00 -1,4 C 99 % 1031,8 hPa 0,0 l/m NO 0,00 h 55 W/m 2,7 km/h (1 Bft)
12.12.2013 12:00 -1,1 C 99 % 1031,4 hPa 0,0 l/m NO 0,00 h 62 W/m 2,3 km/h (1 Bft)
12.12.2013 13:00 -1,0 C 99 % 1031,2 hPa 0,0 l/m NO 0,00 h 47 W/m 2,3 km/h (1 Bft)
12.12.2013 14:00 -1,1 C 99 % 1030,6 hPa 0,0 l/m N-NO 0,00 h 48 W/m 5,6 km/h (1 Bft)
12.12.2013 15:00 -1,4 C 99 % 1030,6 hPa 0,0 l/m N-NO 0,00 h 17 W/m 3,7 km/h (1 Bft)
12.12.2013 16:00 -1,4 C 99 % 1030,8 hPa 0,0 l/m N-NO 0,00 h 5 W/m 3,7 km/h (1 Bft)
12.12.2013 17:00 -1,7 C 99 % 1030,8 hPa 0,0 l/m W-NW 0,00 h 0 W/m 5,7 km/h (1 Bft)
12.12.2013 18:00 -1,8 C 99 % 1030,5 hPa 0,0 l/m W 0,00 h 0 W/m 6,5 km/h (2 Bft)
12.12.2013 19:00 -2,2 C 99 % 1030,5 hPa 0,0 l/m W-SW 0,00 h 0 W/m 6,1 km/h (2 Bft)
12.12.2013 20:00 -2,2 C 99 % 1030,2 hPa 0,0 l/m W-SW 0,00 h 0 W/m 5,2 km/h (1 Bft)
12.12.2013 21:00 -2,1 C 99 % 1030,2 hPa 0,0 l/m W-SW 0,00 h 0 W/m 6,4 km/h (2 Bft)
12.12.2013 22:00 -2,1 C 99 % 1030,1 hPa 0,0 l/m W-SW 0,00 h 0 W/m 6,0 km/h (2 Bft)
12.12.2013 23:00 -2,2 C 99 % 1029,9 hPa 0,0 l/m W-SW 0,00 h 0 W/m 5,1 km/h (1 Bft)
13.12.2013 00:00 -2,3 C 99 % 1029,6 hPa 0,0 l/m W-SW 0,00 h 0 W/m 5,6 km/h (1 Bft)
13.12.2013 01:00 -2,6 C 99 % 1029,3 hPa 0,0 l/m W-SW 0,00 h 0 W/m 4,1 km/h (1 Bft)
13.12.2013 02:00 -2,8 C 98 % 1029,2 hPa 0,0 l/m W-SW 0,00 h 0 W/m 5,2 km/h (1 Bft)
13.12.2013 03:00 -2,9 C 98 % 1029,0 hPa 0,0 l/m W-SW 0,00 h 0 W/m 5,1 km/h (1 Bft)
13.12.2013 04:00 -3,0 C 98 % 1028,7 hPa 0,0 l/m W-SW 0,00 h 0 W/m 4,9 km/h (1 Bft)
13.12.2013 05:00 -2,8 C 98 % 1028,5 hPa 0,0 l/m W-SW 0,00 h 0 W/m 7,2 km/h (2 Bft)
13.12.2013 06:00 -2,3 C 99 % 1028,3 hPa 0,0 l/m W-SW 0,00 h 0 W/m 8,3 km/h (2 Bft)
13.12.2013 07:00 -2,0 C 99 % 1028,3 hPa 0,0 l/m SW 0,00 h 0 W/m 7,9 km/h (2 Bft)
13.12.2013 08:00 -2,1 C 99 % 1028,3 hPa 0,0 l/m SW 0,00 h 9 W/m 7,5 km/h (2 Bft)
13.12.2013 09:00 -2,3 C 99 % 1028,4 hPa 0,0 l/m W-SW 0,00 h 24 W/m 7,0 km/h (2 Bft)
13.12.2013 10:00 -2,3 C 99 % 1028,5 hPa 0,0 l/m W-SW 0,00 h 49 W/m 5,2 km/h (1 Bft)
13.12.2013 11:00 -1,8 C 99 % 1028,1 hPa 0,0 l/m W-SW 0,00 h 65 W/m 7,8 km/h (2 Bft)
13.12.2013 12:00 -1,3 C 99 % 1027,3 hPa 0,0 l/m W-SW 0,00 h 64 W/m 5,1 km/h (1 Bft)
13.12.2013 13:00 -0,8 C 99 % 1026,6 hPa 0,0 l/m W-SW 0,00 h 55 W/m 5,9 km/h (2 Bft)
13.12.2013 14:00 -0,6 C 99 % 1026,2 hPa 0,0 l/m W-SW 0,00 h 42 W/m 5,1 km/h (1 Bft)
13.12.2013 15:00 -0,7 C 99 % 1026,1 hPa 0,0 l/m W-SW 0,00 h 16 W/m 4,4 km/h (1 Bft)
13.12.2013 16:00 -1,1 C 99 % 1025,9 hPa 0,0 l/m W-SW 0,00 h 6 W/m 4,1 km/h (1 Bft)
13.12.2013 17:00 -1,6 C 99 % 1025,8 hPa 0,0 l/m W-SW 0,00 h 0 W/m 5,9 km/h (2 Bft)
13.12.2013 18:00 -1,9 C 99 % 1025,9 hPa 0,0 l/m W-SW 0,00 h 0 W/m 4,8 km/h (1 Bft)
13.12.2013 19:00 -2,2 C 99 % 1026,2 hPa 0,0 l/m W-SW 0,00 h 0 W/m 6,5 km/h (2 Bft)
13.12.2013 20:00 -2,5 C 99 % 1026,7 hPa 0,0 l/m W-SW 0,00 h 0 W/m 6,0 km/h (2 Bft)
13.12.2013 21:00 -2,8 C 99 % 1026,9 hPa 0,0 l/m W-SW 0,00 h 0 W/m 6,8 km/h (2 Bft)
13.12.2013 22:00 -3,1 C 98 % 1027,4 hPa 0,0 l/m W-SW 0,00 h 0 W/m 6,0 km/h (2 Bft)
13.12.2013 23:00 -2,9 C 99 % 1027,6 hPa 0,0 l/m W-SW 0,00 h 0 W/m 7,9 km/h (2 Bft)
14.12.2013 00:00 -2,4 C 99 % 1027,8 hPa 0,0 l/m SW 0,00 h 0 W/m 11,0 km/h (2 Bft)
14.12.2013 01:00 -2,1 C 99 % 1027,7 hPa 0,0 l/m S-SW 0,00 h 0 W/m 13,0 km/h (3 Bft)
14.12.2013 02:00 -2,2 C 99 % 1027,8 hPa 0,0 l/m S-SW 0,00 h 0 W/m 10,5 km/h (2 Bft)
14.12.2013 03:00 -2,2 C 99 % 1027,8 hPa 0,0 l/m S-SW 0,00 h 0 W/m 11,3 km/h (2 Bft)
14.12.2013 04:00 -2,2 C 99 % 1028,0 hPa 0,0 l/m SW 0,00 h 0 W/m 10,5 km/h (2 Bft)
14.12.2013 05:00 -2,5 C 99 % 1028,2 hPa 0,0 l/m S-SW 0,00 h 0 W/m 12,0 km/h (2 Bft)
14.12.2013 06:00 -2,7 C 99 % 1028,5 hPa 0,0 l/m S-SW 0,00 h 0 W/m 11,7 km/h (2 Bft)
14.12.2013 07:00 -2,7 C 99 % 1029,2 hPa 0,0 l/m S-SW 0,00 h 0 W/m 9,4 km/h (2 Bft)
14.12.2013 08:00 -2,7 C 99 % 1029,8 hPa 0,0 l/m S-SW 0,00 h 10 W/m 8,5 km/h (2 Bft)
14.12.2013 09:00 -2,4 C 99 % 1030,3 hPa 0,0 l/m S-SW 0,00 h 44 W/m 10,2 km/h (2 Bft)
14.12.2013 10:00 -1,9 C 99 % 1030,7 hPa 0,0 l/m S-SW 0,00 h 64 W/m 10,3 km/h (2 Bft)
14.12.2013 11:00 -1,6 C 99 % 1031,0 hPa 0,2 l/m S-SW 0,00 h 25 W/m 4,8 km/h (1 Bft)
14.12.2013 12:00 -0,9 C 99 % 1031,0 hPa 0,0 l/m S-SW 0,00 h 36 W/m 4,8 km/h (1 Bft)
14.12.2013 13:00 -0,5 C 99 % 1031,0 hPa 1,6 l/m S-SW 0,00 h 25 W/m 5,5 km/h (1 Bft)
14.12.2013 14:00 -0,1 C 100 % 1031,3 hPa 1,2 l/m S-SW 0,00 h 32 W/m 4,4 km/h (1 Bft)
14.12.2013 15:00 0,3 C 99 % 1031,8 hPa 0,2 l/m S-SW 0,00 h 16 W/m 4,9 km/h (1 Bft)
14.12.2013 16:00 0,2 C 99 % 1032,5 hPa 0,0 l/m S-SW 0,00 h 7 W/m 3,3 km/h (1 Bft)
14.12.2013 17:00 0,1 C 100 % 1033,1 hPa 0,0 l/m S-SW 0,00 h 0 W/m 5,3 km/h (1 Bft)
14.12.2013 18:00 0,2 C 100 % 1033,6 hPa 0,0 l/m S-SW 0,00 h 0 W/m 4,8 km/h (1 Bft)
14.12.2013 19:00 0,4 C 100 % 1034,3 hPa 0,4 l/m S-SW 0,00 h 0 W/m 5,7 km/h (1 Bft)
14.12.2013 20:00 0,3 C 99 % 1034,9 hPa 0,0 l/m S-SW 0,00 h 0 W/m 8,7 km/h (2 Bft)
14.12.2013 21:00 0,3 C 100 % 1035,5 hPa 0,0 l/m S-SW 0,00 h 0 W/m 3,9 km/h (1 Bft)
14.12.2013 22:00 0,4 C 100 % 1035,4 hPa 0,0 l/m S-SW 0,00 h 0 W/m 8,4 km/h (2 Bft)
14.12.2013 23:00 0,4 C 100 % 1035,3 hPa 0,0 l/m SW 0,00 h 0 W/m 11,2 km/h (2 Bft)
15.12.2013 00:00 0,3 C 100 % 1035,0 hPa 0,0 l/m SW 0,00 h 0 W/m 10,8 km/h (2 Bft)
15.12.2013 01:00 0,3 C 99 % 1034,8 hPa 0,0 l/m SW 0,00 h 0 W/m 9,8 km/h (2 Bft)
15.12.2013 02:00 0,3 C 99 % 1034,6 hPa 0,0 l/m W-SW 0,00 h 0 W/m 7,0 km/h (2 Bft)
15.12.2013 03:00 0,3 C 99 % 1034,4 hPa 0,0 l/m W-SW 0,00 h 0 W/m 6,8 km/h (2 Bft)
15.12.2013 04:00 0,3 C 99 % 1034,3 hPa 0,0 l/m SW 0,00 h 0 W/m 10,6 km/h (2 Bft)
15.12.2013 05:00 0,0 C 99 % 1034,1 hPa 0,0 l/m SW 0,00 h 0 W/m 12,0 km/h (2 Bft)
15.12.2013 06:00 -0,3 C 99 % 1034,1 hPa 0,0 l/m S-SW 0,00 h 0 W/m 8,8 km/h (2 Bft)
15.12.2013 07:00 -0,5 C 99 % 1033,7 hPa 0,0 l/m S-SW 0,00 h 0 W/m 12,8 km/h (3 Bft)
15.12.2013 08:00 -0,6 C 99 % 1034,1 hPa 0,0 l/m SW 0,08 h 17 W/m 7,4 km/h (2 Bft)
15.12.2013 09:00 -0,3 C 99 % 1033,8 hPa 0,0 l/m SW 0,00 h 30 W/m 6,5 km/h (2 Bft)
15.12.2013 10:00 -0,0 C 100 % 1034,2 hPa 0,0 l/m SW 0,17 h 103 W/m 4,0 km/h (1 Bft)
15.12.2013 11:00 1,0 C 99 % 1034,2 hPa 0,0 l/m SW 0,25 h 139 W/m 3,2 km/h (1 Bft)
15.12.2013 12:00 1,3 C 97 % 1033,9 hPa 0,0 l/m SW 0,00 h 84 W/m 3,6 km/h (1 Bft)
15.12.2013 13:00 1,4 C 97 % 1033,3 hPa 0,0 l/m S-SW 0,25 h 143 W/m 9,7 km/h (2 Bft)
15.12.2013 14:00 1,8 C 96 % 1033,1 hPa 0,0 l/m S-SW 0,25 h 92 W/m 8,0 km/h (2 Bft)
15.12.2013 15:00 1,3 C 95 % 1033,1 hPa 0,0 l/m S-SW 0,08 h 29 W/m 4,7 km/h (1 Bft)
15.12.2013 16:00 0,7 C 95 % 1033,2 hPa 0,0 l/m N 0,08 h 9 W/m 0,9 km/h (0 Bft)
15.12.2013 17:00 -0,0 C 96 % 1033,5 hPa 0,0 l/m S-SW 0,00 h 0 W/m 4,0 km/h (1 Bft)
15.12.2013 18:00 -0,3 C 97 % 1033,6 hPa 0,0 l/m N 0,00 h 0 W/m 1,2 km/h (1 Bft)
15.12.2013 19:00 -0,2 C 97 % 1033,7 hPa 0,0 l/m N 0,00 h 0 W/m 0,4 km/h (0 Bft)
15.12.2013 20:00 -0,2 C 98 % 1033,9 hPa 0,0 l/m N 0,00 h 0 W/m 0,3 km/h (0 Bft)
15.12.2013 21:00 -0,4 C 98 % 1034,1 hPa 0,0 l/m N 0,00 h 0 W/m 0,0 km/h (0 Bft)
15.12.2013 22:00 -1,0 C 97 % 1034,1 hPa 0,0 l/m N 0,00 h 0 W/m 0,0 km/h (0 Bft)
15.12.2013 23:00 -1,7 C 97 % 1034,0 hPa 0,0 l/m S-SW 0,00 h 0 W/m 1,2 km/h (1 Bft)
Min-Datum _ 13.12.13 10.12.13 13.12.13 - - - - 09.12.13
_ Min-Zeit 22:25 13:00 17:40 - - - - 00:25
Minimum _ -3,2 C 67 % 1025,6 hPa - - - - 0,0 km/h (0 Bft)
Max-Datum _ 10.12.13 09.12.13 10.12.13 14.12.13 - 09.12.13 09.12.13 15.12.13
_ Max-Zeit 14:10 03:40 21:35 13:10 - 08:15 11:30 07:50
Maximum _ 7,6 C 100 % 1035,7 hPa 1,6 l/m - 0,08 h 336 W/m 19,3 km/h
S-SW (3 Bft)
Durchschnitt _ -0,3 C 96 % 1032,2 hPa #3,6 l/m S-SW #13:15 h 75 W/m 5,0 km/h (1 Bft)